createdAt,value
2018-07-12T00:02:22.486Z,6.37
2018-07-12T00:04:50.188Z,6.80
2018-07-12T00:07:17.892Z,6.80
2018-07-12T00:09:45.602Z,6.87
2018-07-12T00:12:13.259Z,7.27
2018-07-12T00:14:40.999Z,7.03
2018-07-12T00:17:08.653Z,7.93
2018-07-12T00:19:36.351Z,7.30
2018-07-12T00:22:04.078Z,7.00
2018-07-12T00:24:31.784Z,7.27
2018-07-12T00:26:59.458Z,6.83
2018-07-12T00:29:27.491Z,7.43
2018-07-12T00:31:55.180Z,8.03
2018-07-12T00:34:22.909Z,7.70
2018-07-12T00:36:50.575Z,7.67
2018-07-12T00:39:18.243Z,8.80
2018-07-12T00:41:45.915Z,7.67
2018-07-12T00:44:13.567Z,6.93
2018-07-12T00:46:41.235Z,6.87
2018-07-12T00:49:08.904Z,7.23
2018-07-12T00:51:36.612Z,7.47
2018-07-12T00:54:04.339Z,7.00
2018-07-12T00:56:32.043Z,6.80
2018-07-12T00:58:59.767Z,7.27
2018-07-12T01:01:27.440Z,7.57
2018-07-12T01:03:55.136Z,7.83
2018-07-12T01:06:22.827Z,7.40
2018-07-12T01:08:50.530Z,7.80
2018-07-12T01:11:18.204Z,7.23
2018-07-12T01:13:45.890Z,7.47
2018-07-12T01:16:13.562Z,7.50
2018-07-12T01:18:41.288Z,7.80
2018-07-12T01:21:08.996Z,6.90
2018-07-12T01:23:36.647Z,7.23
2018-07-12T01:26:04.518Z,6.80
2018-07-12T01:28:32.223Z,7.23
2018-07-12T01:31:00.016Z,6.50
2018-07-12T01:33:27.720Z,7.03
2018-07-12T01:39:07.378Z,7.13
2018-07-12T01:41:35.057Z,7.00
2018-07-12T01:44:02.747Z,6.30
2018-07-12T01:46:30.435Z,6.87
2018-07-12T01:48:58.140Z,6.87
2018-07-12T01:51:25.856Z,6.83
2018-07-12T01:53:53.556Z,6.87
2018-07-12T01:56:21.272Z,7.73
2018-07-12T01:58:49.110Z,7.10
2018-07-12T02:01:17.226Z,6.77
2018-07-12T02:03:44.883Z,6.60
2018-07-12T02:06:12.562Z,7.00
2018-07-12T02:08:40.297Z,7.13
2018-07-12T02:11:08.016Z,6.60
2018-07-12T02:13:35.719Z,6.00
2018-07-12T02:16:03.419Z,5.90
2018-07-12T02:18:31.495Z,5.27
2018-07-12T02:21:00.735Z,5.10
2018-07-12T02:23:28.675Z,5.60
2018-07-12T02:25:56.375Z,4.83
2018-07-12T02:28:24.056Z,7.10
2018-07-12T02:30:51.759Z,7.53
2018-07-12T02:33:19.439Z,5.47
2018-07-12T02:35:47.155Z,5.13
2018-07-12T02:38:14.808Z,5.60
2018-07-12T02:40:42.532Z,5.63
2018-07-12T02:43:10.188Z,6.07
2018-07-12T02:45:37.906Z,6.30
2018-07-12T02:48:05.596Z,5.60
2018-07-12T02:50:33.291Z,5.57
2018-07-12T02:53:00.936Z,5.73
2018-07-12T02:55:28.643Z,5.70
2018-07-12T02:58:03.931Z,6.00
2018-07-12T03:00:31.645Z,6.57
2018-07-12T03:02:59.309Z,6.37
2018-07-12T03:05:27.013Z,7.10
2018-07-12T03:07:54.727Z,6.67
2018-07-12T03:10:22.497Z,6.53
2018-07-12T03:12:50.174Z,6.77
2018-07-12T03:15:17.900Z,7.30
2018-07-12T03:17:45.542Z,6.53
2018-07-12T03:20:13.636Z,6.43
2018-07-12T03:22:41.356Z,6.87
2018-07-12T03:25:09.077Z,7.87
2018-07-12T03:27:36.782Z,8.60
2018-07-12T03:30:04.441Z,8.70
2018-07-12T03:32:32.095Z,8.30
2018-07-12T03:34:59.771Z,8.30
2018-07-12T03:37:27.394Z,7.83
2018-07-12T03:39:55.072Z,8.30
2018-07-12T03:42:22.970Z,8.40
2018-07-12T03:44:50.645Z,8.60
2018-07-12T03:47:18.359Z,8.13
2018-07-12T03:49:46.035Z,8.03
2018-07-12T03:52:13.680Z,8.03
2018-07-12T03:54:41.400Z,7.33
2018-07-12T03:57:09.063Z,6.90
2018-07-12T03:59:36.768Z,7.10
2018-07-12T04:02:04.715Z,7.30
2018-07-12T04:04:32.730Z,8.70
2018-07-12T04:07:00.401Z,11.07
2018-07-12T04:09:28.135Z,11.23
2018-07-12T04:11:55.854Z,9.30
2018-07-12T04:14:23.529Z,8.83
2018-07-12T04:16:55.214Z,9.40
2018-07-12T04:19:23.214Z,10.23
2018-07-12T04:21:50.910Z,11.37
2018-07-12T04:24:18.602Z,11.73
2018-07-12T04:26:46.344Z,11.30
2018-07-12T04:29:14.058Z,11.50
2018-07-12T04:31:41.748Z,13.10
2018-07-12T04:34:09.404Z,11.50
2018-07-12T04:36:37.394Z,11.53
2018-07-12T04:39:05.663Z,12.20
2018-07-12T04:41:33.650Z,11.50
2018-07-12T04:44:01.303Z,13.17
2018-07-12T04:46:28.991Z,12.80
2018-07-12T04:48:56.657Z,13.10
2018-07-12T04:51:24.335Z,13.60
2018-07-12T04:53:52.014Z,14.53
2018-07-12T04:56:21.029Z,15.00
2018-07-12T04:58:48.699Z,14.20
2018-07-12T05:01:16.395Z,14.73
2018-07-12T05:03:44.074Z,14.47
2018-07-12T05:06:11.815Z,15.00
2018-07-12T05:08:39.717Z,15.57
2018-07-12T05:11:15.652Z,14.77
2018-07-12T05:13:43.335Z,14.77
2018-07-12T05:16:11.067Z,13.67
2018-07-12T05:18:38.734Z,14.20
2018-07-12T05:21:06.406Z,15.07
2018-07-12T05:23:34.064Z,15.37
2018-07-12T05:26:01.775Z,14.90
2018-07-12T05:28:29.509Z,14.20
2018-07-12T05:30:57.228Z,14.20
2018-07-12T05:33:25.137Z,13.27
2018-07-12T05:35:55.177Z,14.10
2018-07-12T05:38:25.256Z,13.70
2018-07-12T05:40:54.889Z,12.60
2018-07-12T05:43:28.946Z,12.53
2018-07-12T05:45:58.789Z,12.60
2018-07-12T05:48:27.987Z,12.47
2018-07-12T05:50:57.486Z,12.17
2018-07-12T05:53:27.424Z,13.43
2018-07-12T05:56:01.191Z,13.47
2018-07-12T05:58:36.238Z,12.93
2018-07-12T06:01:10.781Z,13.40
2018-07-12T06:03:48.220Z,13.27
2018-07-12T06:06:18.180Z,12.93
2018-07-12T06:08:48.593Z,14.67
2018-07-12T06:11:17.839Z,15.03
2018-07-12T06:14:01.764Z,15.30
2018-07-12T06:17:34.848Z,14.63
2018-07-12T06:20:04.173Z,13.77
2018-07-12T06:22:33.379Z,13.30
2018-07-12T06:25:02.608Z,14.90
2018-07-12T06:27:31.810Z,16.00
2018-07-12T06:30:01.051Z,15.10
2018-07-12T06:32:30.274Z,15.73
2018-07-12T06:35:00.054Z,14.23
2018-07-12T06:37:29.326Z,14.17
2018-07-12T06:40:00.679Z,14.13
2018-07-12T06:42:31.269Z,16.13
2018-07-12T06:45:00.490Z,14.53
2018-07-12T06:47:30.474Z,14.57
2018-07-12T06:49:59.623Z,15.80
2018-07-12T06:52:28.875Z,14.97
2018-07-12T06:54:58.162Z,14.57
2018-07-12T06:57:27.380Z,13.40
2018-07-12T06:59:56.630Z,13.23
2018-07-12T07:02:25.863Z,11.87
2018-07-12T07:04:55.067Z,11.20
2018-07-12T07:07:24.259Z,12.10
2018-07-12T07:09:53.454Z,11.83
2018-07-12T07:12:22.740Z,11.93
2018-07-12T07:14:53.908Z,10.80
2018-07-12T07:17:23.157Z,10.73
2018-07-12T07:19:52.384Z,9.40
2018-07-12T07:22:21.615Z,8.80
2018-07-12T07:24:51.218Z,10.27
2018-07-12T07:27:20.412Z,11.27
2018-07-12T07:29:49.715Z,12.77
2018-07-12T07:32:19.139Z,11.80
2018-07-12T07:34:48.642Z,12.23
2018-07-12T07:37:28.224Z,11.10
2018-07-12T07:39:57.471Z,8.90
2018-07-12T07:42:26.643Z,10.00
2018-07-12T07:44:55.838Z,9.77
2018-07-12T07:47:25.062Z,10.60
2018-07-12T07:49:54.220Z,10.77
2018-07-12T07:52:23.520Z,10.77
2018-07-12T07:54:52.744Z,11.30
2018-07-12T07:57:22.056Z,11.20
2018-07-12T07:59:51.383Z,11.07
2018-07-12T08:02:20.631Z,11.10
2018-07-12T08:04:49.891Z,10.37
2018-07-12T08:07:19.134Z,9.97
2018-07-12T08:09:48.416Z,9.00
2018-07-12T08:12:17.642Z,8.70
2018-07-12T08:14:46.858Z,9.17
2018-07-12T08:17:16.083Z,9.23
2018-07-12T08:19:45.280Z,8.23
2018-07-12T08:22:14.519Z,8.27
2018-07-12T08:24:43.793Z,8.63
2018-07-12T08:27:13.052Z,9.47
2018-07-12T08:29:47.511Z,8.63
2018-07-12T08:32:16.697Z,9.13
2018-07-12T08:34:45.907Z,9.10
2018-07-12T08:37:15.096Z,8.43
2018-07-12T08:39:44.335Z,8.20
2018-07-12T08:42:13.523Z,7.70
2018-07-12T08:44:42.854Z,7.73
2018-07-12T08:47:12.122Z,7.63
2018-07-12T08:49:41.354Z,8.43
2018-07-12T08:52:10.551Z,6.23
2018-07-12T08:54:39.872Z,6.20
2018-07-12T08:57:09.100Z,7.23
2018-07-12T08:59:38.319Z,6.40
2018-07-12T09:02:07.506Z,6.00
2018-07-12T09:04:36.747Z,6.20
2018-07-12T09:07:06.061Z,6.80
2018-07-12T09:09:35.339Z,7.10
2018-07-12T09:12:04.749Z,6.17
2018-07-12T09:14:33.995Z,7.33
2018-07-12T09:17:03.200Z,6.93
2018-07-12T09:19:32.346Z,5.90
2018-07-12T09:22:01.436Z,5.37
2018-07-12T09:24:30.704Z,4.53
2018-07-12T09:26:59.947Z,4.27
2018-07-12T09:29:30.149Z,3.63
2018-07-12T09:31:59.386Z,4.03
2018-07-12T09:34:28.591Z,4.33
2018-07-12T09:36:57.821Z,4.50
2018-07-12T09:39:26.999Z,4.00
2018-07-12T09:41:56.575Z,5.10
2018-07-12T09:44:26.076Z,4.50
2018-07-12T09:46:55.347Z,4.50
2018-07-12T09:49:24.814Z,3.80
2018-07-12T09:51:54.176Z,4.30
2018-07-12T09:54:23.423Z,3.77
2018-07-12T09:57:03.408Z,3.80
2018-07-12T09:59:32.709Z,3.87
2018-07-12T10:02:06.983Z,3.10
2018-07-12T10:04:36.187Z,4.10
2018-07-12T10:07:10.888Z,3.90
2018-07-12T10:09:45.228Z,4.37
2018-07-12T10:12:19.560Z,4.57
2018-07-12T10:14:52.423Z,4.90
2018-07-12T10:17:31.084Z,4.77
2018-07-12T10:20:00.383Z,3.40
2018-07-12T10:22:29.587Z,4.10
2018-07-12T10:24:58.779Z,4.07
2018-07-12T10:27:28.578Z,3.80
2018-07-12T10:29:57.796Z,3.23
2018-07-12T10:32:27.021Z,2.83
2018-07-12T10:34:56.375Z,2.83
2018-07-12T10:37:25.640Z,2.90
2018-07-12T10:39:54.890Z,4.60
2018-07-12T10:42:24.037Z,3.70
2018-07-12T10:44:53.212Z,3.30
2018-07-12T10:47:22.353Z,2.90
2018-07-12T10:49:51.558Z,2.77
2018-07-12T10:52:20.783Z,3.00
2018-07-12T10:54:50.042Z,2.80
2018-07-12T10:57:19.295Z,2.90
2018-07-12T10:59:48.604Z,2.43
2018-07-12T11:02:17.847Z,2.97
2018-07-12T11:04:47.091Z,2.37
2018-07-12T11:07:16.307Z,2.87
2018-07-12T11:09:45.665Z,3.03
2018-07-12T11:12:14.924Z,3.30
2018-07-12T11:14:44.111Z,3.00
2018-07-12T11:17:13.369Z,2.60
2018-07-12T11:19:42.572Z,2.30
2018-07-12T11:22:11.778Z,2.73
2018-07-12T11:24:40.978Z,3.10
2018-07-12T11:27:10.206Z,2.90
2018-07-12T11:29:54.341Z,2.83
2018-07-12T11:32:23.633Z,2.40
2018-07-12T11:34:52.991Z,2.50
2018-07-12T11:37:26.876Z,2.40
2018-07-12T11:39:57.703Z,2.07
2018-07-12T11:42:27.035Z,2.87
2018-07-12T11:44:56.275Z,2.30
2018-07-12T11:47:25.524Z,2.33
2018-07-12T11:49:54.775Z,2.30
2018-07-12T11:52:24.012Z,2.30
2018-07-12T11:54:53.234Z,2.23
2018-07-12T11:57:22.487Z,2.13
2018-07-12T11:59:51.762Z,2.43
2018-07-12T12:02:21.354Z,2.33
2018-07-12T12:04:50.583Z,2.20
2018-07-12T12:07:19.820Z,2.50
2018-07-12T12:09:48.535Z,2.60
2018-07-12T12:12:17.762Z,2.60
2018-07-12T12:14:47.012Z,2.20
2018-07-12T12:17:16.233Z,2.30
2018-07-12T12:19:45.980Z,2.57
2018-07-12T12:22:17.405Z,2.90
2018-07-12T12:24:47.127Z,2.30
2018-07-12T12:27:17.514Z,2.10
2018-07-12T12:29:46.743Z,2.07
2018-07-12T12:32:32.966Z,2.30
2018-07-12T12:35:02.613Z,2.73
2018-07-12T12:37:32.878Z,2.03
2018-07-12T12:40:02.490Z,2.30
2018-07-12T12:42:32.416Z,2.57
2018-07-12T12:45:02.277Z,2.43
2018-07-12T12:47:31.916Z,2.30
2018-07-12T12:50:01.673Z,3.30
2018-07-12T12:52:34.450Z,2.37
2018-07-12T12:55:03.979Z,2.57
2018-07-12T12:57:33.248Z,2.10
2018-07-12T13:00:02.618Z,2.10
2018-07-12T13:02:33.087Z,2.70
2018-07-12T13:05:02.767Z,2.40
2018-07-12T13:07:32.558Z,2.20
2018-07-12T13:10:02.054Z,1.83
2018-07-12T13:12:31.330Z,2.00
2018-07-12T13:15:01.059Z,1.90
2018-07-12T13:17:31.487Z,2.37
2018-07-12T13:20:00.952Z,2.00
2018-07-12T13:22:30.215Z,2.27
2018-07-12T13:25:00.403Z,2.00
2018-07-12T13:27:30.685Z,2.47
2018-07-12T13:30:00.625Z,1.90
2018-07-12T13:32:30.881Z,2.03
2018-07-12T13:35:00.126Z,1.93
2018-07-12T13:37:29.379Z,1.90
2018-07-12T13:39:58.627Z,1.90
2018-07-12T13:42:28.219Z,2.30
2018-07-12T13:44:57.777Z,1.93
2018-07-12T13:47:26.976Z,1.80
2018-07-12T13:49:56.204Z,2.00
2018-07-12T13:52:25.437Z,2.10
2018-07-12T13:54:54.643Z,1.80
2018-07-12T13:57:23.842Z,1.93
2018-07-12T13:59:53.079Z,2.40
2018-07-12T14:02:22.313Z,2.07
2018-07-12T14:04:51.639Z,2.17
2018-07-12T14:07:20.803Z,2.13
2018-07-12T14:09:50.038Z,2.20
2018-07-12T14:12:19.271Z,2.00
2018-07-12T14:14:48.497Z,2.47
2018-07-12T14:17:17.747Z,1.80
2018-07-12T14:19:46.999Z,1.97
2018-07-12T14:22:22.167Z,2.17
2018-07-12T14:24:51.407Z,1.93
2018-07-12T14:27:20.577Z,2.17
2018-07-12T14:29:49.813Z,2.10
2018-07-12T14:32:19.004Z,2.10
2018-07-12T14:34:48.238Z,2.33
2018-07-12T14:37:17.481Z,2.10
2018-07-12T14:39:46.848Z,2.20
2018-07-12T14:42:16.005Z,2.23
2018-07-12T15:00:19.987Z,2.13
2018-07-12T15:02:49.230Z,2.10
2018-07-12T15:05:18.394Z,2.20
2018-07-12T15:07:47.499Z,2.17
2018-07-12T15:10:16.962Z,2.20
2018-07-12T15:12:46.147Z,2.10
2018-07-12T15:15:15.386Z,2.13
2018-07-12T15:17:44.680Z,2.10
2018-07-12T15:20:13.868Z,2.30
2018-07-12T15:22:43.173Z,2.03
2018-07-12T15:25:12.393Z,1.80
2018-07-12T15:27:41.600Z,1.93
2018-07-12T15:30:10.926Z,2.20
2018-07-12T15:32:40.211Z,2.03
2018-07-12T15:35:09.558Z,2.20
2018-07-12T15:37:38.823Z,1.90
2018-07-12T15:40:08.227Z,1.90
2018-07-12T15:42:37.468Z,2.10
2018-07-12T15:45:06.778Z,2.30
2018-07-12T15:47:36.029Z,1.77
2018-07-12T15:50:05.372Z,1.93
2018-07-12T15:52:34.778Z,1.90
2018-07-12T15:55:04.032Z,2.10
2018-07-12T15:57:33.276Z,2.07
2018-07-12T16:00:02.644Z,1.90
2018-07-12T16:02:31.916Z,1.90
2018-07-12T16:05:01.139Z,1.90
2018-07-12T16:10:23.640Z,1.90
2018-07-12T16:12:53.174Z,1.80
2018-07-12T16:15:22.442Z,2.07
2018-07-12T16:17:51.692Z,2.00
2018-07-12T16:20:20.649Z,2.20
2018-07-12T16:22:50.463Z,1.90
2018-07-12T16:25:19.238Z,2.10
2018-07-12T16:27:48.557Z,1.87
2018-07-12T16:30:17.902Z,2.10
2018-07-12T16:32:47.185Z,1.97
2018-07-12T16:35:16.419Z,1.90
2018-07-12T16:37:45.746Z,2.17
2018-07-12T16:40:14.992Z,2.10
2018-07-12T16:42:44.233Z,2.00
2018-07-12T16:45:13.578Z,1.70
2018-07-12T16:47:42.838Z,1.70
2018-07-12T16:50:12.085Z,1.90
2018-07-12T16:52:42.229Z,1.80
2018-07-12T16:55:10.968Z,1.80
2018-07-12T16:57:40.188Z,1.83
2018-07-12T17:00:09.591Z,1.90
2018-07-12T17:02:38.935Z,1.97
2018-07-12T17:05:08.222Z,1.90
2018-07-12T17:07:37.545Z,1.80
2018-07-12T17:10:06.829Z,1.70
2018-07-12T17:12:36.116Z,1.70
2018-07-12T17:15:05.418Z,1.70
2018-07-12T17:17:34.659Z,2.63
2018-07-12T17:20:03.948Z,1.70
2018-07-12T17:22:33.237Z,1.90
2018-07-12T17:25:04.933Z,1.80
2018-07-12T17:27:34.115Z,1.70
2018-07-12T17:30:03.725Z,2.00
2018-07-12T17:32:33.088Z,1.90
2018-07-12T17:35:02.303Z,1.77
2018-07-12T17:37:38.280Z,1.80
2018-07-12T17:40:07.542Z,2.00
2018-07-12T17:42:40.232Z,2.20
2018-07-12T17:45:09.550Z,1.97
2018-07-12T17:47:38.954Z,1.77
2018-07-12T17:50:08.197Z,1.73
2018-07-12T17:52:37.477Z,2.10
2018-07-12T17:55:06.785Z,1.80
2018-07-12T17:57:37.900Z,1.77
2018-07-12T18:00:06.614Z,2.00
2018-07-12T18:02:35.872Z,2.07
2018-07-12T18:05:05.551Z,2.20
2018-07-12T18:07:35.109Z,2.13
2018-07-12T18:10:04.426Z,1.80
2018-07-12T18:12:33.687Z,1.90
2018-07-12T18:15:03.152Z,2.00
2018-07-12T18:17:32.545Z,2.20
2018-07-12T18:20:10.837Z,1.97
2018-07-12T18:22:40.524Z,1.90
2018-07-12T18:25:09.769Z,2.03
2018-07-12T18:27:39.090Z,2.00
2018-07-12T18:30:10.090Z,2.33
2018-07-12T18:32:40.014Z,2.20
2018-07-12T18:35:13.181Z,2.17
2018-07-12T18:37:42.731Z,1.97
2018-07-12T18:40:15.259Z,2.03
2018-07-12T18:42:44.503Z,2.20
2018-07-12T18:45:13.752Z,1.90
2018-07-12T18:47:42.952Z,2.20
2018-07-12T18:50:12.204Z,2.07
2018-07-12T18:52:41.539Z,2.40
2018-07-12T18:55:10.416Z,2.43
2018-07-12T18:57:39.645Z,2.00
2018-07-12T19:00:08.867Z,2.53
2018-07-12T19:02:38.270Z,2.40
2018-07-12T19:05:07.821Z,2.43
2018-07-12T19:07:37.307Z,2.30
2018-07-12T19:10:06.936Z,2.40
2018-07-12T19:12:36.182Z,2.30
2018-07-12T19:15:05.583Z,2.40
2018-07-12T19:17:34.903Z,2.60
2018-07-12T19:20:04.645Z,2.37
2018-07-12T19:22:33.816Z,2.63
2018-07-12T19:25:03.036Z,2.70
2018-07-12T19:27:32.256Z,2.93
2018-07-12T19:30:02.201Z,2.70
2018-07-12T19:32:31.396Z,2.70
2018-07-12T19:35:01.235Z,2.87
2018-07-12T19:37:32.522Z,2.70
2018-07-12T19:40:01.778Z,2.67
2018-07-12T19:42:31.023Z,2.40
2018-07-12T19:45:02.640Z,2.20
2018-07-12T19:47:32.225Z,2.53
2018-07-12T19:50:01.502Z,2.30
2018-07-12T19:52:33.675Z,2.50
2018-07-12T19:55:02.380Z,2.30
2018-07-12T19:57:31.651Z,2.47
2018-07-12T20:00:00.918Z,2.67
2018-07-12T20:02:30.153Z,2.47
2018-07-12T20:04:59.435Z,2.43
2018-07-12T20:07:28.656Z,2.60
2018-07-12T20:10:16.952Z,2.67
2018-07-12T20:12:46.913Z,2.50
2018-07-12T20:15:17.368Z,2.50
2018-07-12T20:17:47.163Z,2.60
2018-07-12T20:20:17.197Z,2.60
2018-07-12T20:22:48.584Z,2.47
2018-07-12T20:25:18.586Z,2.80
2018-07-12T20:27:48.555Z,2.30
2018-07-12T20:30:18.144Z,2.23
2018-07-12T20:32:48.524Z,2.70
2018-07-12T20:35:20.753Z,2.50
2018-07-12T20:37:50.505Z,2.47
2018-07-12T20:40:20.256Z,2.93
2018-07-12T20:42:50.237Z,2.60
2018-07-12T20:45:20.170Z,2.63
2018-07-12T20:47:50.511Z,2.57
2018-07-12T20:50:20.736Z,2.67
2018-07-12T20:52:50.368Z,2.50
2018-07-12T20:55:20.524Z,2.53
2018-07-12T20:57:50.071Z,2.57
2018-07-12T21:00:20.277Z,2.80
2018-07-12T21:02:50.852Z,2.80
2018-07-12T21:05:20.107Z,2.50
2018-07-12T21:07:53.989Z,2.33
2018-07-12T21:10:23.884Z,2.63
2018-07-12T21:12:53.664Z,2.57
2018-07-12T21:15:23.584Z,2.60
2018-07-12T21:17:53.225Z,2.40
2018-07-12T21:20:23.761Z,2.60
2018-07-12T21:22:53.698Z,2.70
2018-07-12T21:25:23.524Z,2.60
2018-07-12T21:27:52.907Z,2.80
2018-07-12T21:30:22.250Z,2.70
2018-07-12T21:32:51.667Z,2.60
2018-07-12T21:35:21.513Z,2.83
2018-07-12T21:37:50.462Z,2.90
2018-07-12T21:40:19.918Z,2.80
2018-07-12T21:42:49.496Z,2.93
2018-07-12T21:45:18.817Z,3.07
2018-07-12T21:47:47.987Z,2.90
2018-07-12T21:50:17.221Z,3.03
2018-07-12T21:52:46.499Z,2.80
2018-07-12T21:55:15.780Z,2.97
2018-07-12T21:57:45.024Z,3.03
2018-07-12T22:00:14.372Z,3.17
2018-07-12T22:02:43.756Z,3.10
2018-07-12T22:05:13.086Z,3.07
2018-07-12T22:07:53.105Z,2.77
2018-07-12T22:10:22.368Z,2.67
2018-07-12T22:12:51.566Z,3.30
2018-07-12T22:15:20.776Z,3.27
2018-07-12T22:17:50.016Z,3.10
2018-07-12T22:20:19.272Z,3.07
2018-07-12T22:22:49.559Z,2.73
2018-07-12T22:25:18.783Z,3.20
2018-07-12T22:27:48.032Z,2.90
2018-07-12T22:30:17.283Z,3.23
2018-07-12T22:32:46.561Z,3.20
2018-07-12T22:35:15.816Z,3.50
2018-07-12T22:37:45.170Z,3.20
2018-07-12T22:40:14.760Z,3.10
2018-07-12T22:42:43.956Z,3.13
2018-07-12T22:45:13.806Z,3.27
2018-07-12T22:47:43.548Z,3.43
2018-07-12T22:50:13.068Z,3.50
2018-07-12T22:52:42.227Z,3.17
2018-07-12T22:55:11.404Z,3.23
2018-07-12T22:57:41.408Z,3.23
2018-07-12T23:00:10.632Z,3.53
2018-07-12T23:02:40.220Z,3.50
2018-07-12T23:05:10.187Z,3.33
2018-07-12T23:07:39.499Z,3.20
2018-07-12T23:10:08.734Z,3.23
2018-07-12T23:12:38.461Z,3.40
2018-07-12T23:15:07.716Z,3.10
2018-07-12T23:17:36.875Z,3.33
2018-07-12T23:20:06.188Z,3.50
2018-07-12T23:22:35.415Z,3.50
2018-07-12T23:25:04.703Z,3.60
2018-07-12T23:27:33.954Z,3.17
2018-07-12T23:30:03.212Z,3.33
2018-07-12T23:32:32.536Z,3.63
2018-07-12T23:35:01.691Z,3.53
2018-07-12T23:37:30.948Z,3.40
2018-07-12T23:40:00.192Z,3.47
2018-07-12T23:42:29.387Z,3.50
2018-07-12T23:45:00.787Z,3.30
2018-07-12T23:47:30.211Z,3.37
2018-07-12T23:49:59.415Z,3.40
2018-07-12T23:52:28.657Z,3.40
2018-07-12T23:54:58.006Z,3.53
2018-07-12T23:57:28.179Z,3.57
2018-07-12T23:59:57.421Z,3.50
